Time;durP1;ratioP1;P1;durP2;ratioP2;P2;SDS_P1;SDS_P2;PMS_P1;PMS_P2;Temp;Humidity;BMP_temperature;BMP_pressure;BME280_temperature;BME280_humidity;BME280_pressure;Samples;Min_cycle;Max_cycle;Signal;HPM_P1;HPM_P2
2022/03/29 00:01:43;;;;;;;31.27;14.32;;;;;;;7.46;34.29;92792.97;5041204;28;20053;-90
2022/03/29 00:04:25;;;;;;;;;;;;;;;;;;;;;
2022/03/29 00:07:01;;;;;;;27.45;14.13;;;;;;;7.40;34.06;92781.75;5022916;28;20360;-89
2022/03/29 00:10:08;;;;;;;29.33;13.45;;;;;;;7.62;33.91;92817.97;5054964;28;20043;-89
2022/03/29 00:12:55;;;;;;;30.15;14.00;;;;;;;7.19;33.90;92748.91;5020446;28;20041;-89
2022/03/29 00:15:42;;;;;;;;;;;;;;;;;;;;;
2022/03/29 00:18:34;;;;;;;31.27;13.80;;;;;;;7.16;34.33;92737.19;5056004;28;20037;-90
2022/03/29 00:21:15;;;;;;;36.30;13.75;;;;;;;7.54;34.78;92802.84;5010462;28;20378;-88
2022/03/29 00:24:26;;;;;;;28.15;13.63;;;;;;;7.25;34.75;92756.47;5055893;28;20390;-90
2022/03/29 00:27:30;;;;;;;;;;;;;;;;;;;;;
2022/03/29 00:30:18;;;;;;;29.08;14.10;;;;;;;7.12;35.12;92751.00;5040749;28;20037;-89
2022/03/29 00:33:04;;;;;;;;;;;;;;;;;;;;;
2022/03/29 00:35:39;;;;;;;30.55;14.25;;;;;;;6.96;34.79;92721.50;5033773;28;20128;-91
2022/03/29 00:38:26;;;;;;;31.95;14.23;;;;;;;7.18;34.85;92761.16;5021506;28;20041;-90
2022/03/29 00:41:13;;;;;;;29.60;15.02;;;;;;;7.15;34.97;92761.66;5033620;28;20040;-90
2022/03/29 00:43:57;;;;;;;30.35;14.30;;;;;;;7.17;34.84;92764.00;5018121;28;20487;-89
2022/03/29 00:46:47;;;;;;;25.70;12.70;;;;;;;6.88;34.87;92717.59;5003270;28;20021;-89
2022/03/29 00:49:24;;;;;;;31.00;12.85;;;;;;;7.05;34.87;92735.63;5018293;28;20060;-90
2022/03/29 00:52:14;;;;;;;27.08;13.40;;;;;;;7.09;35.08;92742.66;5034510;28;20048;-89
2022/03/29 00:55:27;;;;;;;;;;;;;;;;;;;;;
2022/03/29 00:58:02;;;;;;;;;;;;;;;;;;;;;
2022/03/29 01:03:47;;;;;;;31.85;14.25;;;;;;;7.09;34.88;92731.44;5054998;28;20037;-89
2022/03/29 01:06:49;;;;;;;33.72;14.60;;;;;;;7.09;34.69;92727.03;5033863;28;20497;-90
2022/03/29 01:09:45;;;;;;;;;;;;;;;;;;;;;
2022/03/29 01:12:19;;;;;;;28.92;14.57;;;;;;;7.16;34.85;92720.78;5046530;28;20036;-89
2022/03/29 01:15:18;;;;;;;;;;;;;;;;;;;;;
2022/03/29 01:18:13;;;;;;;26.15;13.80;;;;;;;7.44;35.04;92742.94;5036700;28;20482;-90
2022/03/29 01:21:21;;;;;;;33.13;14.73;;;;;;;7.11;34.84;92686.94;5036666;28;20060;-89
2022/03/29 01:24:15;;;;;;;30.27;13.93;;;;;;;7.28;35.16;92708.28;5053547;28;20037;-89
2022/03/29 01:26:56;;;;;;;27.55;14.50;;;;;;;7.12;35.39;92678.88;5014346;28;20048;-88
2022/03/29 01:29:47;;;;;;;27.73;14.52;;;;;;;6.94;34.88;92650.75;5033372;28;20037;-89
2022/03/29 01:32:41;;;;;;;34.40;14.23;;;;;;;7.08;35.17;92664.81;5022903;28;20120;-89
2022/03/29 01:35:33;;;;;;;33.17;15.05;;;;;;;7.22;35.17;92678.09;5036259;28;20123;-90
2022/03/29 01:38:47;;;;;;;;;;;;;;;;;;;;;
2022/03/29 01:41:28;;;;;;;30.90;14.10;;;;;;;7.21;35.65;92660.91;5033484;28;20024;-90
2022/03/29 01:44:10;;;;;;;29.63;14.15;;;;;;;7.00;35.88;92626.25;5023418;28;20037;-90
2022/03/29 01:47:32;;;;;;;;;;;;;;;;;;;;;
2022/03/29 01:50:15;;;;;;;27.85;13.05;;;;;;;6.94;36.12;92599.47;5032035;28;20049;-89
2022/03/29 01:52:56;;;;;;;34.53;14.75;;;;;;;7.28;36.24;92654.38;5033093;28;20044;-90
2022/03/29 01:55:46;;;;;;;29.40;14.40;;;;;;;7.02;36.35;92596.34;5031501;28;20038;-90
2022/03/29 01:58:32;;;;;;;;;;;;;;;;;;;;;
2022/03/29 02:01:32;;;;;;;30.75;14.60;;;;;;;6.87;36.20;92573.72;5035930;28;20059;-90
2022/03/29 02:04:03;;;;;;;35.13;14.50;;;;;;;6.91;36.31;92573.19;5019401;28;20051;-90
2022/03/29 02:07:16;;;;;;;;;;;;;;;;;;;;;
2022/03/29 02:10:07;;;;;;;;;;;;;;;;;;;;;
2022/03/29 02:12:40;;;;;;;28.83;13.70;;;;;;;6.97;36.80;92577.34;5007351;28;20029;-89
2022/03/29 02:15:29;;;;;;;33.20;14.50;;;;;;;7.06;36.48;92586.19;5036809;28;20045;-89
2022/03/29 02:18:16;;;;;;;33.13;14.60;;;;;;;7.01;36.25;92571.34;5055637;28;20116;-89
2022/03/29 02:21:04;;;;;;;;;;;;;;;;;;;;;
2022/03/29 02:23:46;;;;;;;35.05;13.65;;;;;;;7.09;36.44;92575.25;5033210;28;20037;-89
2022/03/29 02:26:55;;;;;;;31.45;14.80;;;;;;;7.04;36.52;92563.00;5050969;28;20093;-89
2022/03/29 02:29:42;;;;;;;30.52;14.30;;;;;;;7.05;36.77;92558.59;5064792;28;20121;-90
2022/03/29 02:32:28;;;;;;;29.17;14.52;;;;;;;7.03;36.59;92558.88;4988159;28;20045;-90
2022/03/29 02:35:30;;;;;;;;;;;;;;;;;;;;;
2022/03/29 02:38:23;;;;;;;;;;;;;;;;;;;;;
2022/03/29 02:40:58;;;;;;;29.02;14.70;;;;;;;7.01;36.79;92542.72;5035597;28;20009;-89
2022/03/29 02:47:02;;;;;;;;;;;;;;;;;;;;;
2022/03/29 02:49:50;;;;;;;31.98;14.60;;;;;;;7.35;37.00;92594.22;5039341;28;20037;-90
2022/03/29 02:52:43;;;;;;;25.98;14.32;;;;;;;7.18;37.14;92568.50;5018823;28;20487;-91
2022/03/29 02:55:23;;;;;;;33.03;14.65;;;;;;;7.15;36.79;92569.00;5018352;28;20096;-90
2022/03/29 02:58:25;;;;;;;27.70;14.52;;;;;;;6.86;36.98;92527.91;5036399;28;20045;-90
2022/03/29 03:01:30;;;;;;;33.00;14.73;;;;;;;6.97;37.11;92540.91;5036773;28;20045;-89
2022/03/29 03:07:38;;;;;;;;;;;;;;;;;;;;;
2022/03/29 03:10:41;;;;;;;;;;;;;;;;;;;;;
2022/03/29 03:13:46;;;;;;;31.45;15.48;;;;;;;7.14;36.98;92575.25;5042748;28;20040;-90
2022/03/29 03:16:30;;;;;;;;;;;;;;;;;;;;;
2022/03/29 03:19:22;;;;;;;29.65;14.57;;;;;;;6.75;37.29;92518.53;5026505;28;20087;-90
2022/03/29 03:22:51;;;;;;;30.67;14.68;;;;;;;7.02;37.79;92566.91;5037304;28;20140;-90
2022/03/29 03:28:50;;;;;;;31.95;15.35;;;;;;;6.53;37.97;92513.63;5057484;28;20045;-89
2022/03/29 03:31:51;;;;;;;29.08;14.25;;;;;;;6.72;38.05;92546.91;5020168;28;20052;-90
2022/03/29 03:34:38;;;;;;;32.53;14.07;;;;;;;6.30;38.39;92488.88;5036325;28;20052;-90
2022/03/29 03:37:30;;;;;;;;;;;;;;;;;;;;;
2022/03/29 03:40:29;;;;;;;30.63;14.13;;;;;;;6.23;38.62;92498.75;5054937;28;20197;-89
2022/03/29 03:43:18;;;;;;;;;;;;;;;;;;;;;
2022/03/29 03:45:57;;;;;;;27.85;13.93;;;;;;;6.15;38.84;92489.66;5038799;28;20068;-89
2022/03/29 03:48:54;;;;;;;;;;;;;;;;;;;;;
2022/03/29 03:51:37;;;;;;;;;;;;;;;;;;;;;
2022/03/29 03:54:45;;;;;;;;;;;;;;;;;;;;;
2022/03/29 03:57:39;;;;;;;36.40;15.82;;;;;;;6.00;38.59;92487.81;5036341;28;20113;-90
2022/03/29 04:00:24;;;;;;;;;;;;;;;;;;;;;
2022/03/29 04:03:02;;;;;;;36.38;14.98;;;;;;;5.94;38.53;92470.66;5056012;28;20048;-91
2022/03/29 04:05:56;;;;;;;34.35;15.27;;;;;;;6.14;38.44;92502.91;5028461;28;20055;-90
2022/03/29 04:09:07;;;;;;;29.60;14.43;;;;;;;6.27;38.65;92512.81;5023702;28;20129;-89
2022/03/29 04:11:42;;;;;;;37.30;13.88;;;;;;;5.89;38.79;92462.03;5055512;28;20082;-91
2022/03/29 04:14:33;;;;;;;29.83;14.18;;;;;;;5.86;38.79;92459.97;5037815;28;20060;-89
2022/03/29 04:17:32;;;;;;;28.80;14.43;;;;;;;5.88;38.68;92474.25;5038807;28;20045;-89
2022/03/29 04:20:03;;;;;;;26.73;13.82;;;;;;;5.87;38.74;92459.69;5038071;28;20494;-90
2022/03/29 04:22:45;;;;;;;28.45;14.23;;;;;;;5.88;38.78;92453.47;5024889;28;20479;-90
2022/03/29 04:25:58;;;;;;;35.20;14.63;;;;;;;5.90;39.26;92455.81;5039887;28;20381;-90
2022/03/29 04:28:39;;;;;;;;;;;;;;;;;;;;;
2022/03/29 04:31:28;;;;;;;28.95;13.63;;;;;;;5.98;39.29;92471.69;5051281;28;20120;-91
2022/03/29 04:34:34;;;;;;;33.13;14.10;;;;;;;5.88;39.30;92448.28;5031945;28;20033;-90
2022/03/29 04:37:24;;;;;;;34.55;14.40;;;;;;;6.24;39.00;92495.13;5005628;28;20034;-90
2022/03/29 04:42:54;;;;;;;31.70;14.30;;;;;;;5.89;39.04;92439.44;5029750;28;20045;-89
2022/03/29 04:45:29;;;;;;;28.27;13.25;;;;;;;6.20;38.91;92491.50;5038244;28;20033;-89
2022/03/29 04:47:57;;;;;;;36.78;14.20;;;;;;;6.17;39.20;92482.41;5013970;28;20087;-91
2022/03/29 04:50:40;;;;;;;;;;;;;;;;;;;;;
2022/03/29 04:53:09;;;;;;;29.73;13.63;;;;;;;6.05;39.70;92459.22;5035561;28;20029;-87
2022/03/29 04:55:37;;;;;;;26.30;13.88;;;;;;;6.29;38.96;92505.53;5034267;28;20031;-86
2022/03/29 04:58:05;;;;;;;32.22;13.95;;;;;;;6.33;39.23;92506.59;5045059;28;20040;-88
2022/03/29 05:00:37;;;;;;;30.60;14.45;;;;;;;5.90;39.05;92440.22;5015972;28;20045;-87
2022/03/29 05:03:10;;;;;;;29.48;14.60;;;;;;;5.92;40.55;92433.75;5002032;28;20136;-87
2022/03/29 05:05:42;;;;;;;30.52;14.57;;;;;;;6.17;42.35;92471.19;5035308;28;20037;-87
2022/03/29 05:08:14;;;;;;;31.20;14.07;;;;;;;5.91;43.05;92437.38;5013402;28;20030;-86
2022/03/29 05:10:42;;;;;;;31.08;13.20;;;;;;;6.17;41.71;92481.59;5049855;28;20039;-87
2022/03/29 05:13:17;;;;;;;30.77;14.40;;;;;;;6.07;41.09;92460.81;5052708;28;20037;-86
2022/03/29 05:15:50;;;;;;;29.40;13.93;;;;;;;5.93;40.75;92435.28;5049903;28;20029;-86
2022/03/29 05:18:16;;;;;;;27.20;13.88;;;;;;;6.14;40.23;92464.69;5033994;28;20043;-86
2022/03/29 05:20:42;;;;;;;35.75;14.82;;;;;;;6.26;40.84;92490.47;5049541;28;20037;-86
2022/03/29 05:23:08;;;;;;;32.70;13.82;;;;;;;6.41;41.76;92513.84;5027231;28;20069;-86
2022/03/29 05:25:36;;;;;;;31.13;15.18;;;;;;;6.36;41.53;92497.47;5022731;28;20067;-88
2022/03/29 05:28:02;;;;;;;26.50;13.25;;;;;;;6.35;40.36;92494.09;5031244;28;20068;-88
2022/03/29 05:30:28;;;;;;;28.33;13.48;;;;;;;6.41;40.23;92503.44;5046907;28;20049;-89
2022/03/29 05:32:57;;;;;;;35.05;13.82;;;;;;;6.45;40.08;92509.69;5051714;28;20113;-86
2022/03/29 05:35:29;;;;;;;26.20;13.35;;;;;;;6.47;39.56;92504.25;5030041;28;20040;-86
2022/03/29 05:37:57;;;;;;;28.23;14.13;;;;;;;6.51;40.09;92512.28;5025474;28;20128;-85
2022/03/29 05:40:24;;;;;;;29.48;14.13;;;;;;;6.56;40.28;92515.69;5044059;28;20053;-87
2022/03/29 05:42:51;;;;;;;29.27;14.38;;;;;;;6.50;40.92;92501.13;5048423;28;20049;-86
2022/03/29 05:45:16;;;;;;;30.27;13.70;;;;;;;6.65;40.50;92516.72;5033681;28;20098;-86
2022/03/29 05:50:27;;;;;;;30.52;14.20;;;;;;;6.83;37.44;92514.66;5035256;28;20045;-86
2022/03/29 05:52:54;;;;;;;31.95;14.57;;;;;;;6.84;37.57;92503.19;5020570;28;20083;-86
2022/03/29 05:55:20;;;;;;;31.20;14.38;;;;;;;6.91;38.15;92506.28;5044745;28;20033;-88
2022/03/29 05:57:49;;;;;;;30.42;13.75;;;;;;;6.97;38.38;92505.25;5026820;28;20036;-86
2022/03/29 06:00:16;;;;;;;28.58;14.50;;;;;;;7.14;39.56;92519.78;5031786;28;20021;-86
2022/03/29 06:02:44;;;;;;;27.67;14.18;;;;;;;7.19;39.85;92523.19;5030257;28;20053;-87
2022/03/29 06:05:10;;;;;;;33.30;14.77;;;;;;;7.31;39.71;92528.09;5048224;28;20573;-85
2022/03/29 06:07:36;;;;;;;39.03;14.80;;;;;;;7.49;39.41;92517.09;5031970;28;20429;-88
2022/03/29 06:10:04;;;;;;;36.83;14.88;;;;;;;7.69;39.68;92516.25;5015667;28;20047;-87
2022/03/29 06:12:30;;;;;;;30.00;14.45;;;;;;;7.60;39.52;92496.22;5032230;28;20394;-88
2022/03/29 06:14:56;;;;;;;27.73;13.95;;;;;;;7.69;39.37;92521.44;5007750;28;20048;-88
2022/03/29 06:17:21;;;;;;;30.92;14.18;;;;;;;7.70;38.85;92523.03;5033028;28;20033;-88
2022/03/29 06:19:47;;;;;;;30.75;13.80;;;;;;;7.92;38.45;92529.69;5015840;28;20088;-88
2022/03/29 06:22:13;;;;;;;24.25;12.75;;;;;;;8.29;37.36;92524.03;5036168;28;20049;-88
2022/03/29 06:24:39;;;;;;;30.52;14.48;;;;;;;8.68;37.41;92525.88;5012388;28;20041;-87
2022/03/29 06:27:05;;;;;;;28.05;14.00;;;;;;;9.22;36.16;92529.31;5033030;28;20110;-87
2022/03/29 06:29:31;;;;;;;32.80;14.63;;;;;;;10.09;35.54;92517.91;5050598;28;20079;-89
2022/03/29 06:31:58;;;;;;;29.38;14.57;;;;;;;11.26;34.70;92519.84;5037506;28;20044;-88
2022/03/29 06:34:24;;;;;;;34.47;14.95;;;;;;;12.15;32.41;92518.69;5036684;28;20517;-88
2022/03/29 06:36:50;;;;;;;28.40;14.23;;;;;;;12.99;31.50;92501.59;5034232;28;20025;-88
2022/03/29 06:39:15;;;;;;;30.10;14.90;;;;;;;14.03;29.93;92514.44;5000950;28;20106;-87
2022/03/29 06:41:42;;;;;;;31.33;14.57;;;;;;;14.84;28.55;92507.06;5043393;28;20425;-88
2022/03/29 06:44:08;;;;;;;27.75;15.00;;;;;;;15.32;26.11;92492.88;5054605;28;20056;-89
2022/03/29 06:46:35;;;;;;;30.80;14.88;;;;;;;15.53;24.26;92504.28;5052295;28;20072;-88
2022/03/29 06:49:02;;;;;;;30.33;13.73;;;;;;;14.46;25.77;92497.16;5043540;28;20452;-88
2022/03/29 06:51:31;;;;;;;27.92;14.57;;;;;;;15.59;24.91;92508.31;5018456;28;20506;-88
2022/03/29 06:53:57;;;;;;;28.58;14.88;;;;;;;16.37;24.35;92498.47;5026040;28;20037;-89
2022/03/29 06:56:23;;;;;;;30.88;15.32;;;;;;;17.27;23.08;92503.19;5021015;28;20253;-88
2022/03/29 06:58:49;;;;;;;28.95;14.45;;;;;;;17.31;22.29;92495.38;5030772;28;20048;-89
2022/03/29 07:01:14;;;;;;;25.80;13.88;;;;;;;15.99;23.85;92501.97;5019619;28;20049;-89
2022/03/29 07:03:40;;;;;;;28.02;14.23;;;;;;;15.94;24.38;92502.94;5041954;28;20037;-88
2022/03/29 07:06:06;;;;;;;30.85;13.77;;;;;;;15.70;23.90;92505.34;5034826;28;20506;-92
2022/03/29 07:08:32;;;;;;;28.73;14.80;;;;;;;15.80;25.21;92484.66;5052418;28;20521;-88
2022/03/29 07:11:21;;;;;;;25.95;14.48;;;;;;;15.33;25.57;92484.66;5055154;28;20052;-88
2022/03/29 07:13:47;;;;;;;29.38;14.40;;;;;;;15.93;24.32;92485.53;5003746;28;20111;-89
2022/03/29 07:16:14;;;;;;;29.23;14.30;;;;;;;16.43;23.37;92492.66;5046181;28;20057;-89
2022/03/29 07:18:41;;;;;;;28.98;14.60;;;;;;;15.92;23.56;92470.00;5003194;28;20037;-88
2022/03/29 07:21:07;;;;;;;28.33;14.85;;;;;;;14.99;23.93;92481.03;5037523;28;20120;-89
2022/03/29 07:23:32;;;;;;;28.75;15.05;;;;;;;14.16;24.81;92475.88;5055011;28;20123;-88
2022/03/29 07:25:58;;;;;;;25.05;14.48;;;;;;;13.65;26.89;92493.13;5051458;28;20033;-87
2022/03/29 07:28:25;;;;;;;25.70;14.68;;;;;;;13.27;28.21;92483.78;5053113;28;20037;-88
2022/03/29 07:30:51;;;;;;;29.80;14.30;;;;;;;12.85;28.64;92477.97;5039938;28;20036;-87
2022/03/29 07:33:18;;;;;;;30.00;15.23;;;;;;;12.58;29.05;92488.63;5054522;28;20025;-87
2022/03/29 07:35:45;;;;;;;30.63;15.32;;;;;;;12.90;29.69;92490.22;5017790;28;20485;-88
2022/03/29 07:38:13;;;;;;;32.15;15.27;;;;;;;12.30;29.95;92483.47;5046115;28;20040;-87
2022/03/29 07:40:40;;;;;;;31.20;15.02;;;;;;;12.89;30.44;92478.19;5033353;28;20042;-87
2022/03/29 07:43:10;;;;;;;35.10;15.75;;;;;;;11.49;32.07;92480.63;5037674;28;20044;-88
2022/03/29 07:45:36;;;;;;;30.33;15.50;;;;;;;11.75;31.84;92492.16;5037034;28;20048;-87
2022/03/29 07:48:03;;;;;;;32.00;15.85;;;;;;;11.80;32.98;92488.69;5019609;28;20041;-89
2022/03/29 07:50:31;;;;;;;35.40;16.40;;;;;;;11.66;32.53;92472.94;5021432;28;20041;-87
2022/03/29 07:53:00;;;;;;;34.40;16.40;;;;;;;11.04;35.50;92481.94;5036906;28;20513;-90
2022/03/29 07:55:27;;;;;;;35.58;16.20;;;;;;;11.14;35.68;92470.50;5017398;28;20037;-87
2022/03/29 07:57:52;;;;;;;32.15;16.73;;;;;;;10.99;36.17;92487.28;5034135;28;20048;-87
2022/03/29 08:00:35;;;;;;;34.97;15.52;;;;;;;11.49;34.64;92486.66;5047218;28;20100;-89
2022/03/29 08:03:04;;;;;;;49.15;16.35;;;;;;;11.44;35.41;92466.56;5016380;28;20467;-87
2022/03/29 08:05:31;;;;;;;32.92;15.73;;;;;;;11.53;35.48;92471.09;5029980;28;20416;-89
2022/03/29 08:07:58;;;;;;;34.85;16.48;;;;;;;11.41;35.92;92485.47;5036043;28;20126;-87
2022/03/29 08:10:27;;;;;;;37.30;17.42;;;;;;;11.68;35.50;92486.53;5034501;28;20049;-87
2022/03/29 08:12:55;;;;;;;35.97;17.05;;;;;;;11.34;35.61;92489.56;5019523;28;20069;-87
2022/03/29 08:15:21;;;;;;;31.60;16.30;;;;;;;11.35;36.90;92483.22;5034133;28;20129;-87
2022/03/29 08:17:48;;;;;;;31.20;15.45;;;;;;;11.09;37.83;92482.91;5052027;28;20120;-87
2022/03/29 08:20:15;;;;;;;40.25;18.05;;;;;;;11.15;38.35;92482.53;4992118;28;20049;-87
2022/03/29 08:22:47;;;;;;;35.10;16.05;;;;;;;10.71;38.65;92467.31;5036332;28;20044;-87
2022/03/29 08:25:17;;;;;;;36.65;17.13;;;;;;;11.11;39.28;92476.31;5020840;28;20037;-88
2022/03/29 08:27:44;;;;;;;42.67;18.35;;;;;;;11.73;38.50;92481.22;5004431;28;20098;-87
2022/03/29 08:30:13;;;;;;;41.33;17.05;;;;;;;11.86;37.66;92477.78;5036850;28;20382;-87
2022/03/29 08:32:38;;;;;;;41.22;17.92;;;;;;;12.04;37.65;92476.13;5021615;28;20033;-88
2022/03/29 08:35:06;;;;;;;32.70;17.73;;;;;;;11.94;36.61;92475.59;5052804;28;20036;-87
2022/03/29 08:37:35;;;;;;;35.58;17.17;;;;;;;11.31;39.23;92487.50;5016215;28;20087;-86
2022/03/29 08:40:05;;;;;;;40.00;17.38;;;;;;;11.60;39.06;92477.53;5018244;28;20120;-86
2022/03/29 08:42:31;;;;;;;40.13;17.38;;;;;;;11.42;39.26;92481.03;5027287;28;20042;-87
2022/03/29 08:44:58;;;;;;;45.17;18.17;;;;;;;11.35;38.87;92480.59;5034914;28;20029;-87
2022/03/29 08:47:25;;;;;;;42.25;18.02;;;;;;;11.04;38.93;92474.06;5019198;28;20044;-88
2022/03/29 08:49:51;;;;;;;35.25;17.55;;;;;;;11.31;40.11;92482.28;5018323;28;20037;-88
2022/03/29 08:52:18;;;;;;;34.95;17.40;;;;;;;10.87;39.88;92468.59;5035173;28;20029;-87
2022/03/29 08:54:44;;;;;;;36.95;18.25;;;;;;;11.18;39.68;92481.19;5035174;28;20621;-88
2022/03/29 08:57:11;;;;;;;41.10;18.27;;;;;;;11.91;38.74;92461.22;5019427;28;20490;-88
2022/03/29 08:59:37;;;;;;;35.33;17.00;;;;;;;12.18;37.45;92457.75;5035413;28;20045;-87
2022/03/29 09:02:17;;;;;;;37.80;18.75;;;;;;;12.05;37.61;92475.06;5018222;28;20049;-88
2022/03/29 09:04:44;;;;;;;35.25;17.08;;;;;;;12.34;38.10;92478.38;5018531;28;20036;-88
2022/03/29 09:07:10;;;;;;;36.72;18.83;;;;;;;11.70;40.03;92479.16;5035426;28;20068;-88
2022/03/29 09:09:38;;;;;;;39.55;18.80;;;;;;;12.03;39.24;92479.06;5035233;28;20070;-90
2022/03/29 09:12:17;;;;;;;49.60;17.40;;;;;;;12.58;37.58;92476.25;5035656;28;20566;-88
2022/03/29 09:15:00;;;;;;;38.13;18.90;;;;;;;11.85;38.61;92457.09;5052933;28;20135;-87
2022/03/29 09:17:45;;;;;;;44.45;19.25;;;;;;;12.02;38.80;92477.50;5015679;28;20112;-88
2022/03/29 09:20:22;;;;;;;41.30;18.55;;;;;;;12.35;38.06;92469.44;5037310;28;20037;-88
2022/03/29 09:22:52;;;;;;;36.63;18.05;;;;;;;11.79;38.34;92460.91;5052742;28;20119;-87
2022/03/29 09:25:35;;;;;;;38.72;17.98;;;;;;;11.60;37.75;92466.25;5051735;28;20033;-87
2022/03/29 09:28:04;;;;;;;39.83;19.58;;;;;;;12.11;36.87;92459.97;5035456;28;20075;-88
2022/03/29 09:30:38;;;;;;;35.10;18.10;;;;;;;12.45;35.52;92463.97;5035060;28;20033;-87
2022/03/29 09:33:13;;;;;;;36.45;16.30;;;;;;;11.89;36.48;92460.72;5052727;28;20048;-88
2022/03/29 09:35:52;;;;;;;36.85;17.40;;;;;;;12.18;36.05;92464.81;5042237;28;20032;-88
2022/03/29 09:38:34;;;;;;;37.28;17.38;;;;;;;12.62;35.53;92437.84;5033942;28;20040;-89
2022/03/29 09:41:02;;;;;;;34.43;18.13;;;;;;;11.98;37.13;92458.16;5052395;28;20044;-88
2022/03/29 09:44:06;;;;;;;34.45;14.63;;;;;;;12.02;35.95;92457.31;5037811;28;20044;-88
2022/03/29 09:46:59;;;;;;;32.97;16.30;;;;;;;12.28;35.34;92451.50;5033802;28;20158;-88
2022/03/29 09:49:26;;;;;;;40.63;18.33;;;;;;;12.44;36.08;92441.41;5022268;28;20053;-87
2022/03/29 09:52:15;;;;;;;35.33;17.52;;;;;;;11.92;36.05;92431.28;5034764;28;20112;-89
2022/03/29 09:54:41;;;;;;;39.63;16.83;;;;;;;12.72;35.04;92439.44;5033252;28;20037;-87
2022/03/29 09:57:10;;;;;;;36.30;18.05;;;;;;;12.60;35.27;92428.72;5015494;28;20036;-88
2022/03/29 09:59:49;;;;;;;36.40;18.15;;;;;;;12.74;35.24;92426.78;5029752;28;20494;-88
2022/03/29 10:02:15;;;;;;;36.65;17.30;;;;;;;11.96;34.62;92415.72;5034429;28;20053;-87
2022/03/29 10:04:42;;;;;;;38.83;18.02;;;;;;;12.32;34.16;92415.72;5031076;28;20522;-88
2022/03/29 10:07:10;;;;;;;35.45;16.88;;;;;;;12.53;34.54;92413.38;5033443;28;20076;-88
2022/03/29 10:09:38;;;;;;;37.05;17.90;;;;;;;13.63;33.49;92403.22;5047425;28;20029;-88
2022/03/29 10:12:05;;;;;;;36.45;17.35;;;;;;;12.83;33.62;92411.06;5046770;28;20036;-88
2022/03/29 10:14:36;;;;;;;36.67;17.85;;;;;;;13.19;33.84;92397.00;5036451;28;20120;-90
2022/03/29 10:17:04;;;;;;;36.70;17.23;;;;;;;13.62;33.70;92380.59;5033410;28;20106;-88
2022/03/29 10:19:30;;;;;;;33.17;16.40;;;;;;;13.43;32.89;92373.00;5019069;28;20124;-88
2022/03/29 10:21:58;;;;;;;38.50;17.15;;;;;;;13.77;31.73;92384.66;5034315;28;20112;-87
2022/03/29 10:24:23;;;;;;;34.00;17.05;;;;;;;13.70;31.44;92354.31;5023725;28;20112;-88
2022/03/29 10:26:52;;;;;;;35.97;17.50;;;;;;;13.69;32.33;92375.66;5019497;28;20128;-88
2022/03/29 10:29:20;;;;;;;34.70;16.85;;;;;;;13.47;31.41;92316.09;5040070;28;20025;-90
2022/03/29 10:32:01;;;;;;;36.45;17.52;;;;;;;13.30;32.36;92358.88;5034868;28;20045;-88
2022/03/29 10:34:30;;;;;;;33.67;17.88;;;;;;;12.92;33.78;92377.72;5034928;28;20029;-87
2022/03/29 10:37:18;;;;;;;41.13;17.35;;;;;;;13.78;33.64;92360.69;5052178;28;20063;-91
2022/03/29 10:39:48;;;;;;;32.67;16.23;;;;;;;14.50;31.04;92358.47;5015576;28;20042;-89
2022/03/29 10:42:28;;;;;;;43.13;18.77;;;;;;;14.28;31.72;92354.94;5015468;28;20037;-89
2022/03/29 10:45:06;;;;;;;35.78;18.10;;;;;;;14.98;31.18;92352.94;5006993;28;20032;-88
2022/03/29 10:47:34;;;;;;;34.45;17.55;;;;;;;15.14;30.97;92342.66;5035400;28;20047;-88
2022/03/29 10:50:01;;;;;;;38.15;17.88;;;;;;;14.59;31.81;92325.03;5034066;28;20029;-88
2022/03/29 10:52:29;;;;;;;37.92;18.15;;;;;;;14.43;31.23;92331.84;5051965;28;20048;-88
2022/03/29 10:55:21;;;;;;;34.95;18.35;;;;;;;14.42;31.42;92338.19;5034347;28;20037;-88
2022/03/29 10:58:07;;;;;;;37.15;18.30;;;;;;;13.92;32.98;92337.63;5018073;28;20414;-88
2022/03/29 11:00:38;;;;;;;43.85;19.50;;;;;;;14.10;32.35;92330.50;5033528;28;20358;-88
2022/03/29 11:03:09;;;;;;;41.30;18.27;;;;;;;14.18;32.50;92339.47;5034076;28;20056;-88
2022/03/29 11:06:07;;;;;;;39.25;18.88;;;;;;;14.31;31.32;92325.34;5051778;28;20033;-88
2022/03/29 11:08:41;;;;;;;39.22;19.23;;;;;;;14.64;31.75;92327.50;5041511;28;20068;-88
2022/03/29 11:11:28;;;;;;;35.95;18.98;;;;;;;14.77;31.54;92321.25;5033137;28;20052;-88
2022/03/29 11:14:14;;;;;;;35.08;18.08;;;;;;;14.04;32.56;92318.56;5032120;28;20128;-88
2022/03/29 11:16:39;;;;;;;37.10;16.98;;;;;;;13.99;32.22;92310.06;5015090;28;20045;-88
2022/03/29 11:19:42;;;;;;;41.80;18.88;;;;;;;13.93;32.70;92309.44;5036013;28;20040;-87
2022/03/29 11:22:28;;;;;;;;;;;;;;;13.78;32.66;92307.28;5036084;28;20517;-87
2022/03/29 11:24:55;;;;;;;45.45;19.63;;;;;;;14.03;32.57;92300.47;5037128;28;19912;-88
2022/03/29 11:27:26;;;;;;;39.33;19.33;;;;;;;14.30;32.28;92286.97;5021370;28;20049;-89
2022/03/29 11:29:53;;;;;;;37.42;17.08;;;;;;;14.47;31.87;92288.75;5022020;28;20122;-88
2022/03/29 11:32:19;;;;;;;38.25;18.17;;;;;;;14.05;31.25;92296.44;5017193;28;20029;-88
2022/03/29 11:34:46;;;;;;;33.50;13.70;;;;;;;14.06;31.19;92291.94;5001677;28;20068;-89
2022/03/29 11:37:45;;;;;;;41.53;19.52;;;;;;;13.73;32.98;92284.53;4986331;28;20096;-88
2022/03/29 11:40:13;;;;;;;44.38;20.00;;;;;;;13.75;32.69;92283.13;4997771;28;20045;-87
2022/03/29 11:42:46;;;;;;;40.25;20.52;;;;;;;13.97;33.24;92270.91;5036536;28;20176;-87
2022/03/29 11:45:12;;;;;;;;;;;;;;;13.74;31.93;92278.19;5019679;28;20038;-88
2022/03/29 11:47:38;;;;;;;47.75;19.88;;;;;;;13.68;32.16;92258.41;5003574;28;20310;-88
2022/03/29 11:50:07;;;;;;;40.58;17.20;;;;;;;13.68;32.24;92267.06;5036539;28;20063;-87
2022/03/29 11:52:36;;;;;;;41.10;19.25;;;;;;;13.78;32.03;92252.03;5028113;28;20041;-88
2022/03/29 11:55:14;;;;;;;39.35;18.02;;;;;;;14.58;32.10;92258.38;5023912;28;20041;-89
2022/03/29 11:57:40;;;;;;;38.53;17.50;;;;;;;14.02;31.90;92248.91;5041940;28;20040;-88
2022/03/29 12:00:23;;;;;;;35.45;17.13;;;;;;;14.58;31.30;92244.44;5041535;28;20040;-88
2022/03/29 12:02:48;;;;;;;;;;;;;;;14.95;31.67;92244.72;5047453;28;20033;-88
2022/03/29 12:05:40;;;;;;;37.83;18.13;;;;;;;15.20;30.66;92233.28;5037805;28;20600;-90
2022/03/29 12:08:07;;;;;;;42.83;19.40;;;;;;;15.26;29.47;92215.38;5012315;28;20049;-90
2022/03/29 12:10:34;;;;;;;43.22;19.55;;;;;;;14.91;29.94;92191.13;5010309;28;20116;-89
2022/03/29 12:13:03;;;;;;;43.75;19.65;;;;;;;14.66;30.37;92201.50;5021069;28;20059;-89
2022/03/29 12:15:29;;;;;;;36.35;18.02;;;;;;;14.89;30.39;92199.34;5037294;28;20025;-89
2022/03/29 12:20:48;;;;;;;39.08;17.98;;;;;;;14.59;32.08;92209.13;5025713;28;20041;-90
2022/03/29 12:23:27;;;;;;;43.55;20.85;;;;;;;15.33;31.44;92201.69;5034276;28;20048;-90
2022/03/29 12:25:55;;;;;;;39.47;19.60;;;;;;;15.31;31.07;92195.97;5037664;28;20037;-90
2022/03/29 12:28:22;;;;;;;35.63;16.80;;;;;;;14.54;31.79;92181.09;5035578;28;20044;-89
2022/03/29 12:30:49;;;;;;;37.53;16.40;;;;;;;14.24;31.84;92188.16;5021028;28;20045;-88
2022/03/29 12:33:15;;;;;;;45.35;20.45;;;;;;;14.91;31.50;92167.44;5054392;28;20043;-90
2022/03/29 12:35:41;;;;;;;40.55;20.33;;;;;;;14.83;32.29;92178.78;5004014;28;20025;-89
2022/03/29 12:38:11;;;;;;;44.63;19.92;;;;;;;14.90;31.96;92166.63;5053953;28;20065;-89
2022/03/29 12:40:37;;;;;;;38.92;18.33;;;;;;;14.71;32.00;92161.78;5020296;28;20029;-89
2022/03/29 12:43:08;;;;;;;44.35;20.33;;;;;;;14.92;31.77;92163.69;5020659;28;20045;-90
2022/03/29 12:45:35;;;;;;;42.90;20.45;;;;;;;14.44;32.27;92143.78;5037488;28;20387;-90
2022/03/29 12:48:01;;;;;;;43.42;18.65;;;;;;;14.47;32.27;92143.16;5020913;28;20040;-90
2022/03/29 12:50:28;;;;;;;36.42;18.50;;;;;;;14.75;31.42;92173.25;5055261;28;20079;-89
2022/03/29 12:53:03;;;;;;;41.08;20.40;;;;;;;14.40;31.90;92151.53;5020889;28;20044;-90
2022/03/29 12:55:30;;;;;;;48.92;20.52;;;;;;;14.94;31.77;92161.50;5036954;28;20033;-90
2022/03/29 12:58:04;;;;;;;36.33;17.65;;;;;;;14.63;31.32;92094.13;5021225;28;20041;-89
2022/03/29 13:00:38;;;;;;;37.60;19.45;;;;;;;15.53;31.58;92163.22;5037201;28;20029;-89
2022/03/29 13:03:09;;;;;;;40.53;17.42;;;;;;;14.06;32.26;92139.31;5056113;28;20415;-88
2022/03/29 13:05:37;;;;;;;33.85;16.52;;;;;;;13.80;32.94;92142.78;5055238;28;20048;-87